Packsville, West Virginia
Current Conditions -  °F | °C
As of 12:51 AM on Sunday 26 Oct 2014 (Local Time) from KBKW Reporting Station
Clear Clear  
Wind Chill: 55°   Ceiling: Unl
Heat Index: 55°   Visibility: 10mi
Dew Point: 50°   Wind: 15mph
Humidity: 83%   Direction: 270°W
Pressure: 29.92"   Gusts: NA
Location:  37.9764°N, 81.5271°W
Report Text: KBKW 260451Z AUTO 27013KT 10SM CLR 13/10 A2992 RMK AO2 SLP118 T01280100 401720028 TSNO
Loading
Personal Weather Stations






























Interactive Weather Map
Tropical Storm Tracking
New forecast layout! Learn more

10-Day Weather Forecast

Advertisements
Track Severe Weather on mobile